ROTAER D-AMDT 24/20 Ver mudanças

HORÁCIO DE MATTOS ( SBLE ) / LENÇÓIS, BA 12 28 56S/041 16 37W
AD PUB Governo do Estado UTC-3 VFR L21 , L26 506 (1660)

14 - L12 - ( 2082x30 ASPH 44/R/A/W/T L14 , L15 ) - L12 - 32

SBRE (CINDACTA 3)
CMB- [1] PF TF

RMK -

HORÁRIO DE FUNCIONAMENTO
  1. OPS HN O/R pelo TEL/FAX (75) 3625-8100.
OBSTÁCULO DE AERÓDROMO
  1. OBST (morro) NEG LGTD COORD 122634.47S/0411658.93W ELEV 574M violando o plano básico de zona de proteção do AD
COMPL -
  • [1] MON TIL FRI 1130-1500 1600-2100 SUN 1500-1800. Demais horários O/R Tel (75) 3625-8697 e (75) 3625-8100 durante horário comercial.
TEMP (1)
INFOTEMP 1059R/21
SER COMBUSTIVEL AVGAS NEG AVBL

Duração: 02/06/21 09:33 a 02/10/21 00:00 UTC | Divulgação: 02/06/2021 09:33


Suplementos AIP (0)

NOTAM (0)

Nascer/Por do Sol

08:33

20:41


METAR

TAF

220400Z 2206/2218 09007KT CAVOK TN24/2209Z TX32/2217Z RMK PGQ=


Cartas (0)


Rotas Preferenciais (0)